sensor_id;sensor_type;location;lat;lon;timestamp;P1;durP1;ratioP1;P2;durP2;ratioP2
66970;SDS011;53901;51.466;-2.588;2023-02-28T00:00:04;4.47;;;2.17;;
66970;SDS011;53901;51.466;-2.588;2023-02-28T00:02:37;7.65;;;2.00;;
66970;SDS011;53901;51.466;-2.588;2023-02-28T00:05:05;9.38;;;2.85;;
66970;SDS011;53901;51.466;-2.588;2023-02-28T00:07:31;8.13;;;2.47;;
66970;SDS011;53901;51.466;-2.588;2023-02-28T00:09:57;10.75;;;3.85;;
66970;SDS011;53901;51.466;-2.588;2023-02-28T00:12:22;15.80;;;4.40;;
66970;SDS011;53901;51.466;-2.588;2023-02-28T00:14:48;11.52;;;4.35;;
66970;SDS011;53901;51.466;-2.588;2023-02-28T00:17:14;16.08;;;3.97;;
66970;SDS011;53901;51.466;-2.588;2023-02-28T00:19:39;8.02;;;3.88;;
66970;SDS011;53901;51.466;-2.588;2023-02-28T00:22:05;13.07;;;4.20;;
66970;SDS011;53901;51.466;-2.588;2023-02-28T00:24:30;21.17;;;6.15;;
66970;SDS011;53901;51.466;-2.588;2023-02-28T00:26:56;19.00;;;5.80;;
66970;SDS011;53901;51.466;-2.588;2023-02-28T00:29:21;19.02;;;5.82;;
66970;SDS011;53901;51.466;-2.588;2023-02-28T00:31:47;15.68;;;5.90;;
66970;SDS011;53901;51.466;-2.588;2023-02-28T00:34:12;15.20;;;6.53;;
66970;SDS011;53901;51.466;-2.588;2023-02-28T00:36:37;19.88;;;6.88;;
66970;SDS011;53901;51.466;-2.588;2023-02-28T00:39:03;17.70;;;6.38;;
66970;SDS011;53901;51.466;-2.588;2023-02-28T00:41:29;12.18;;;5.03;;
66970;SDS011;53901;51.466;-2.588;2023-02-28T00:43:54;10.43;;;5.45;;
66970;SDS011;53901;51.466;-2.588;2023-02-28T00:46:19;9.45;;;3.58;;
66970;SDS011;53901;51.466;-2.588;2023-02-28T00:48:45;8.07;;;3.80;;
66970;SDS011;53901;51.466;-2.588;2023-02-28T00:51:10;6.68;;;3.38;;
66970;SDS011;53901;51.466;-2.588;2023-02-28T00:53:36;11.27;;;3.15;;
66970;SDS011;53901;51.466;-2.588;2023-02-28T00:56:01;11.82;;;4.20;;
66970;SDS011;53901;51.466;-2.588;2023-02-28T00:58:27;6.28;;;3.08;;
66970;SDS011;53901;51.466;-2.588;2023-02-28T01:00:53;7.53;;;3.25;;
66970;SDS011;53901;51.466;-2.588;2023-02-28T01:03:19;9.27;;;4.10;;
66970;SDS011;53901;51.466;-2.588;2023-02-28T01:05:45;11.13;;;4.25;;
66970;SDS011;53901;51.466;-2.588;2023-02-28T01:08:11;11.57;;;4.40;;
66970;SDS011;53901;51.466;-2.588;2023-02-28T01:10:38;13.52;;;4.07;;
66970;SDS011;53901;51.466;-2.588;2023-02-28T01:13:04;16.13;;;4.40;;
66970;SDS011;53901;51.466;-2.588;2023-02-28T01:15:30;10.50;;;4.32;;
66970;SDS011;53901;51.466;-2.588;2023-02-28T01:17:56;10.23;;;4.50;;
66970;SDS011;53901;51.466;-2.588;2023-02-28T01:20:22;13.18;;;4.65;;
66970;SDS011;53901;51.466;-2.588;2023-02-28T01:22:48;9.73;;;4.15;;
66970;SDS011;53901;51.466;-2.588;2023-02-28T01:25:13;13.88;;;4.40;;
66970;SDS011;53901;51.466;-2.588;2023-02-28T01:27:39;8.80;;;4.05;;
66970;SDS011;53901;51.466;-2.588;2023-02-28T01:30:05;11.48;;;3.30;;
66970;SDS011;53901;51.466;-2.588;2023-02-28T01:32:32;15.43;;;3.17;;
66970;SDS011;53901;51.466;-2.588;2023-02-28T01:34:57;8.50;;;3.30;;
66970;SDS011;53901;51.466;-2.588;2023-02-28T01:37:25;11.13;;;3.25;;
66970;SDS011;53901;51.466;-2.588;2023-02-28T01:39:51;8.45;;;3.05;;
66970;SDS011;53901;51.466;-2.588;2023-02-28T01:42:16;10.90;;;2.92;;
66970;SDS011;53901;51.466;-2.588;2023-02-28T01:45:02;8.13;;;3.10;;
66970;SDS011;53901;51.466;-2.588;2023-02-28T01:47:32;6.03;;;3.13;;
66970;SDS011;53901;51.466;-2.588;2023-02-28T01:49:59;13.63;;;3.55;;
66970;SDS011;53901;51.466;-2.588;2023-02-28T01:52:26;8.50;;;3.30;;
66970;SDS011;53901;51.466;-2.588;2023-02-28T01:54:53;8.52;;;3.38;;
66970;SDS011;53901;51.466;-2.588;2023-02-28T01:57:21;6.65;;;3.30;;
66970;SDS011;53901;51.466;-2.588;2023-02-28T01:59:51;6.22;;;3.22;;
66970;SDS011;53901;51.466;-2.588;2023-02-28T02:02:23;9.63;;;3.58;;
66970;SDS011;53901;51.466;-2.588;2023-02-28T02:04:54;8.98;;;3.50;;
66970;SDS011;53901;51.466;-2.588;2023-02-28T02:07:22;10.23;;;3.45;;
66970;SDS011;53901;51.466;-2.588;2023-02-28T02:09:48;8.60;;;3.45;;
66970;SDS011;53901;51.466;-2.588;2023-02-28T02:13:19;5.95;;;2.90;;
66970;SDS011;53901;51.466;-2.588;2023-02-28T02:15:16;9.90;;;3.42;;
66970;SDS011;53901;51.466;-2.588;2023-02-28T02:18:01;6.70;;;3.13;;
66970;SDS011;53901;51.466;-2.588;2023-02-28T02:23:27;6.40;;;3.05;;
66970;SDS011;53901;51.466;-2.588;2023-02-28T02:39:31;9.68;;;2.88;;
66970;SDS011;53901;51.466;-2.588;2023-02-28T02:42:08;11.90;;;3.45;;
66970;SDS011;53901;51.466;-2.588;2023-02-28T02:44:43;9.43;;;2.78;;
66970;SDS011;53901;51.466;-2.588;2023-02-28T02:47:17;8.48;;;3.08;;
66970;SDS011;53901;51.466;-2.588;2023-02-28T02:49:51;8.80;;;3.35;;
66970;SDS011;53901;51.466;-2.588;2023-02-28T02:52:18;9.88;;;3.22;;
66970;SDS011;53901;51.466;-2.588;2023-02-28T02:54:47;11.45;;;3.40;;
66970;SDS011;53901;51.466;-2.588;2023-02-28T02:57:15;5.07;;;3.20;;
66970;SDS011;53901;51.466;-2.588;2023-02-28T02:59:46;4.85;;;2.85;;
66970;SDS011;53901;51.466;-2.588;2023-02-28T03:02:14;5.78;;;3.00;;
66970;SDS011;53901;51.466;-2.588;2023-02-28T03:04:46;6.90;;;2.90;;
66970;SDS011;53901;51.466;-2.588;2023-02-28T03:07:15;6.30;;;3.13;;
66970;SDS011;53901;51.466;-2.588;2023-02-28T03:09:49;7.50;;;3.13;;
66970;SDS011;53901;51.466;-2.588;2023-02-28T03:12:18;5.05;;;2.88;;
66970;SDS011;53901;51.466;-2.588;2023-02-28T03:20:15;6.00;;;3.10;;
66970;SDS011;53901;51.466;-2.588;2023-02-28T03:25:53;6.30;;;3.20;;
66970;SDS011;53901;51.466;-2.588;2023-02-28T03:31:11;4.65;;;2.63;;
66970;SDS011;53901;51.466;-2.588;2023-02-28T03:33:43;7.65;;;2.47;;
66970;SDS011;53901;51.466;-2.588;2023-02-28T03:36:11;7.05;;;3.10;;
66970;SDS011;53901;51.466;-2.588;2023-02-28T03:38:48;5.82;;;2.38;;
66970;SDS011;53901;51.466;-2.588;2023-02-28T03:41:23;7.32;;;2.83;;
66970;SDS011;53901;51.466;-2.588;2023-02-28T03:44:34;6.80;;;3.10;;
66970;SDS011;53901;51.466;-2.588;2023-02-28T03:46:49;7.05;;;3.25;;
66970;SDS011;53901;51.466;-2.588;2023-02-28T03:49:19;7.05;;;3.28;;
66970;SDS011;53901;51.466;-2.588;2023-02-28T03:51:47;7.28;;;3.15;;
66970;SDS011;53901;51.466;-2.588;2023-02-28T03:54:22;8.23;;;3.08;;
66970;SDS011;53901;51.466;-2.588;2023-02-28T03:56:57;7.32;;;2.75;;
66970;SDS011;53901;51.466;-2.588;2023-02-28T03:59:44;8.50;;;3.05;;
66970;SDS011;53901;51.466;-2.588;2023-02-28T04:02:12;8.95;;;3.38;;
66970;SDS011;53901;51.466;-2.588;2023-02-28T04:04:37;7.65;;;2.88;;
66970;SDS011;53901;51.466;-2.588;2023-02-28T04:07:05;7.70;;;3.47;;
66970;SDS011;53901;51.466;-2.588;2023-02-28T04:09:32;6.15;;;3.05;;
66970;SDS011;53901;51.466;-2.588;2023-02-28T04:11:58;7.85;;;3.38;;
66970;SDS011;53901;51.466;-2.588;2023-02-28T04:14:24;8.93;;;4.18;;
66970;SDS011;53901;51.466;-2.588;2023-02-28T04:16:50;9.43;;;3.72;;
66970;SDS011;53901;51.466;-2.588;2023-02-28T04:19:18;11.05;;;4.03;;
66970;SDS011;53901;51.466;-2.588;2023-02-28T04:21:44;8.25;;;3.67;;
66970;SDS011;53901;51.466;-2.588;2023-02-28T04:24:13;8.55;;;3.83;;
66970;SDS011;53901;51.466;-2.588;2023-02-28T04:26:42;9.45;;;4.13;;
66970;SDS011;53901;51.466;-2.588;2023-02-28T04:29:09;7.80;;;3.97;;
66970;SDS011;53901;51.466;-2.588;2023-02-28T09:55:51;15.98;;;9.43;;
66970;SDS011;53901;51.466;-2.588;2023-02-28T09:58:32;17.80;;;9.32;;
66970;SDS011;53901;51.466;-2.588;2023-02-28T10:06:30;17.00;;;9.38;;
66970;SDS011;53901;51.466;-2.588;2023-02-28T10:09:03;17.52;;;9.40;;
66970;SDS011;53901;51.466;-2.588;2023-02-28T10:11:34;15.77;;;9.03;;
66970;SDS011;53901;51.466;-2.588;2023-02-28T10:14:04;14.18;;;8.10;;
66970;SDS011;53901;51.466;-2.588;2023-02-28T10:16:46;14.40;;;8.35;;
66970;SDS011;53901;51.466;-2.588;2023-02-28T10:22:13;14.07;;;8.33;;
66970;SDS011;53901;51.466;-2.588;2023-02-28T10:24:47;14.27;;;9.07;;
66970;SDS011;53901;51.466;-2.588;2023-02-28T10:27:15;14.82;;;8.38;;
66970;SDS011;53901;51.466;-2.588;2023-02-28T10:29:43;16.75;;;8.48;;
66970;SDS011;53901;51.466;-2.588;2023-02-28T10:32:11;13.55;;;8.07;;
66970;SDS011;53901;51.466;-2.588;2023-02-28T10:34:40;18.38;;;7.05;;
66970;SDS011;53901;51.466;-2.588;2023-02-28T10:37:05;13.30;;;6.60;;
66970;SDS011;53901;51.466;-2.588;2023-02-28T10:39:42;12.02;;;7.55;;
66970;SDS011;53901;51.466;-2.588;2023-02-28T10:42:24;13.82;;;7.78;;
66970;SDS011;53901;51.466;-2.588;2023-02-28T10:45:10;16.60;;;7.70;;
66970;SDS011;53901;51.466;-2.588;2023-02-28T10:52:52;14.60;;;8.45;;
66970;SDS011;53901;51.466;-2.588;2023-02-28T10:55:22;16.23;;;8.50;;
66970;SDS011;53901;51.466;-2.588;2023-02-28T10:57:50;13.82;;;8.65;;
66970;SDS011;53901;51.466;-2.588;2023-02-28T11:00:20;15.45;;;8.13;;
66970;SDS011;53901;51.466;-2.588;2023-02-28T11:02:47;16.20;;;8.02;;
66970;SDS011;53901;51.466;-2.588;2023-02-28T11:07:55;13.85;;;7.63;;
66970;SDS011;53901;51.466;-2.588;2023-02-28T11:10:24;14.68;;;7.32;;
66970;SDS011;53901;51.466;-2.588;2023-02-28T11:12:54;12.50;;;7.07;;
66970;SDS011;53901;51.466;-2.588;2023-02-28T11:20:22;17.10;;;6.97;;
66970;SDS011;53901;51.466;-2.588;2023-02-28T11:22:49;13.40;;;7.10;;
66970;SDS011;53901;51.466;-2.588;2023-02-28T11:25:25;13.18;;;6.85;;
66970;SDS011;53901;51.466;-2.588;2023-02-28T11:32:56;14.57;;;7.85;;
66970;SDS011;53901;51.466;-2.588;2023-02-28T11:37:52;14.05;;;7.30;;
66970;SDS011;53901;51.466;-2.588;2023-02-28T11:40:21;13.73;;;8.38;;
66970;SDS011;53901;51.466;-2.588;2023-02-28T11:49:02;16.15;;;7.57;;
66970;SDS011;53901;51.466;-2.588;2023-02-28T11:51:53;15.15;;;8.25;;
66970;SDS011;53901;51.466;-2.588;2023-02-28T11:56:52;12.80;;;7.03;;
66970;SDS011;53901;51.466;-2.588;2023-02-28T12:02:19;13.80;;;7.15;;
66970;SDS011;53901;51.466;-2.588;2023-02-28T12:10:24;10.75;;;5.88;;
66970;SDS011;53901;51.466;-2.588;2023-02-28T12:13:55;10.20;;;5.75;;
66970;SDS011;53901;51.466;-2.588;2023-02-28T12:21:14;9.68;;;5.80;;
66970;SDS011;53901;51.466;-2.588;2023-02-28T12:26:31;7.78;;;5.03;;
66970;SDS011;53901;51.466;-2.588;2023-02-28T12:29:14;11.20;;;5.65;;
66970;SDS011;53901;51.466;-2.588;2023-02-28T12:34:29;7.50;;;4.18;;
66970;SDS011;53901;51.466;-2.588;2023-02-28T12:36:58;8.15;;;4.30;;
66970;SDS011;53901;51.466;-2.588;2023-02-28T12:39:29;8.25;;;4.00;;
66970;SDS011;53901;51.466;-2.588;2023-02-28T12:42:09;5.85;;;3.78;;
66970;SDS011;53901;51.466;-2.588;2023-02-28T12:47:17;6.07;;;3.80;;
66970;SDS011;53901;51.466;-2.588;2023-02-28T12:49:45;6.28;;;4.03;;
66970;SDS011;53901;51.466;-2.588;2023-02-28T12:52:15;6.63;;;3.60;;
66970;SDS011;53901;51.466;-2.588;2023-02-28T12:54:48;9.18;;;4.72;;
66970;SDS011;53901;51.466;-2.588;2023-02-28T12:57:36;6.38;;;4.15;;
66970;SDS011;53901;51.466;-2.588;2023-02-28T13:00:13;10.10;;;4.60;;
66970;SDS011;53901;51.466;-2.588;2023-02-28T13:10:55;7.80;;;4.18;;
66970;SDS011;53901;51.466;-2.588;2023-02-28T13:13:22;10.75;;;4.38;;
66970;SDS011;53901;51.466;-2.588;2023-02-28T13:16:01;6.25;;;4.35;;
66970;SDS011;53901;51.466;-2.588;2023-02-28T13:18:34;8.32;;;4.50;;
66970;SDS011;53901;51.466;-2.588;2023-02-28T13:21:23;8.40;;;4.97;;
66970;SDS011;53901;51.466;-2.588;2023-02-28T13:26:21;7.78;;;4.35;;
66970;SDS011;53901;51.466;-2.588;2023-02-28T13:34:31;9.57;;;4.93;;
66970;SDS011;53901;51.466;-2.588;2023-02-28T13:37:30;9.90;;;5.38;;
66970;SDS011;53901;51.466;-2.588;2023-02-28T13:47:44;8.85;;;4.80;;
66970;SDS011;53901;51.466;-2.588;2023-02-28T13:59:03;5.95;;;3.45;;
66970;SDS011;53901;51.466;-2.588;2023-02-28T14:02:03;5.05;;;3.60;;
66970;SDS011;53901;51.466;-2.588;2023-02-28T14:05:00;5.43;;;3.53;;
66970;SDS011;53901;51.466;-2.588;2023-02-28T14:07:43;4.50;;;3.08;;
66970;SDS011;53901;51.466;-2.588;2023-02-28T14:10:19;5.30;;;3.38;;
66970;SDS011;53901;51.466;-2.588;2023-02-28T14:17:57;7.30;;;2.63;;
66970;SDS011;53901;51.466;-2.588;2023-02-28T14:20:25;5.00;;;3.10;;
66970;SDS011;53901;51.466;-2.588;2023-02-28T14:28:40;7.07;;;4.13;;
66970;SDS011;53901;51.466;-2.588;2023-02-28T14:31:17;7.90;;;3.10;;
66970;SDS011;53901;51.466;-2.588;2023-02-28T14:36:37;4.85;;;3.13;;
66970;SDS011;53901;51.466;-2.588;2023-02-28T14:39:14;7.20;;;3.30;;
66970;SDS011;53901;51.466;-2.588;2023-02-28T14:41:42;4.70;;;3.17;;
66970;SDS011;53901;51.466;-2.588;2023-02-28T14:46:40;6.32;;;3.55;;
66970;SDS011;53901;51.466;-2.588;2023-02-28T14:49:12;7.00;;;3.65;;
66970;SDS011;53901;51.466;-2.588;2023-02-28T14:51:42;6.43;;;3.13;;
66970;SDS011;53901;51.466;-2.588;2023-02-28T14:54:12;4.45;;;2.78;;
66970;SDS011;53901;51.466;-2.588;2023-02-28T14:56:39;5.72;;;3.00;;
66970;SDS011;53901;51.466;-2.588;2023-02-28T14:59:05;5.57;;;2.92;;
66970;SDS011;53901;51.466;-2.588;2023-02-28T15:01:43;5.70;;;3.00;;
66970;SDS011;53901;51.466;-2.588;2023-02-28T15:04:15;3.88;;;2.67;;
66970;SDS011;53901;51.466;-2.588;2023-02-28T15:06:46;5.38;;;2.88;;
66970;SDS011;53901;51.466;-2.588;2023-02-28T15:09:16;6.13;;;3.00;;
66970;SDS011;53901;51.466;-2.588;2023-02-28T15:11:45;4.35;;;2.63;;
66970;SDS011;53901;51.466;-2.588;2023-02-28T15:14:14;4.40;;;2.80;;
66970;SDS011;53901;51.466;-2.588;2023-02-28T15:16:44;4.53;;;2.90;;
66970;SDS011;53901;51.466;-2.588;2023-02-28T15:24:30;2.95;;;1.98;;
66970;SDS011;53901;51.466;-2.588;2023-02-28T15:26:59;3.72;;;2.75;;
66970;SDS011;53901;51.466;-2.588;2023-02-28T15:29:36;3.40;;;1.92;;
66970;SDS011;53901;51.466;-2.588;2023-02-28T15:32:26;3.92;;;2.60;;
66970;SDS011;53901;51.466;-2.588;2023-02-28T15:34:59;5.43;;;2.90;;
66970;SDS011;53901;51.466;-2.588;2023-02-28T15:38:02;5.53;;;3.25;;
66970;SDS011;53901;51.466;-2.588;2023-02-28T15:40:43;4.65;;;2.95;;
66970;SDS011;53901;51.466;-2.588;2023-02-28T15:48:22;5.32;;;3.10;;
66970;SDS011;53901;51.466;-2.588;2023-02-28T15:51:01;5.10;;;3.13;;
66970;SDS011;53901;51.466;-2.588;2023-02-28T15:53:39;5.82;;;3.60;;
66970;SDS011;53901;51.466;-2.588;2023-02-28T15:58:58;5.20;;;2.72;;
66970;SDS011;53901;51.466;-2.588;2023-02-28T16:01:27;4.85;;;2.95;;
66970;SDS011;53901;51.466;-2.588;2023-02-28T16:04:04;4.32;;;2.63;;
66970;SDS011;53901;51.466;-2.588;2023-02-28T16:06:34;5.47;;;3.00;;
66970;SDS011;53901;51.466;-2.588;2023-02-28T16:09:02;4.93;;;2.55;;
66970;SDS011;53901;51.466;-2.588;2023-02-28T16:11:37;3.35;;;2.70;;
66970;SDS011;53901;51.466;-2.588;2023-02-28T16:14:05;3.75;;;2.47;;
66970;SDS011;53901;51.466;-2.588;2023-02-28T16:16:31;6.28;;;2.30;;
66970;SDS011;53901;51.466;-2.588;2023-02-28T16:18:58;5.95;;;2.30;;
66970;SDS011;53901;51.466;-2.588;2023-02-28T16:21:24;6.47;;;2.60;;
66970;SDS011;53901;51.466;-2.588;2023-02-28T16:23:51;3.85;;;2.30;;
66970;SDS011;53901;51.466;-2.588;2023-02-28T16:26:23;3.97;;;2.60;;
66970;SDS011;53901;51.466;-2.588;2023-02-28T16:28:49;4.28;;;2.25;;
66970;SDS011;53901;51.466;-2.588;2023-02-28T16:31:15;3.97;;;2.50;;
66970;SDS011;53901;51.466;-2.588;2023-02-28T16:33:41;4.32;;;2.10;;
66970;SDS011;53901;51.466;-2.588;2023-02-28T16:36:19;10.70;;;2.60;;
66970;SDS011;53901;51.466;-2.588;2023-02-28T16:38:46;4.75;;;2.53;;
66970;SDS011;53901;51.466;-2.588;2023-02-28T16:41:12;2.72;;;2.00;;
66970;SDS011;53901;51.466;-2.588;2023-02-28T16:43:43;2.97;;;2.03;;
66970;SDS011;53901;51.466;-2.588;2023-02-28T16:46:11;3.40;;;1.95;;
66970;SDS011;53901;51.466;-2.588;2023-02-28T16:48:37;4.85;;;2.38;;
66970;SDS011;53901;51.466;-2.588;2023-02-28T16:51:02;4.38;;;2.17;;
66970;SDS011;53901;51.466;-2.588;2023-02-28T16:53:29;5.45;;;2.20;;
66970;SDS011;53901;51.466;-2.588;2023-02-28T16:55:55;2.95;;;2.03;;
66970;SDS011;53901;51.466;-2.588;2023-02-28T16:58:20;2.85;;;1.90;;
66970;SDS011;53901;51.466;-2.588;2023-02-28T17:00:48;3.75;;;2.10;;
66970;SDS011;53901;51.466;-2.588;2023-02-28T17:03:24;4.85;;;2.15;;
66970;SDS011;53901;51.466;-2.588;2023-02-28T17:05:51;2.92;;;2.10;;
66970;SDS011;53901;51.466;-2.588;2023-02-28T17:08:17;3.47;;;2.20;;
66970;SDS011;53901;51.466;-2.588;2023-02-28T17:10:42;3.95;;;2.28;;
66970;SDS011;53901;51.466;-2.588;2023-02-28T17:13:08;8.82;;;3.17;;
66970;SDS011;53901;51.466;-2.588;2023-02-28T17:15:36;6.00;;;2.38;;
66970;SDS011;53901;51.466;-2.588;2023-02-28T17:18:02;3.80;;;2.00;;
66970;SDS011;53901;51.466;-2.588;2023-02-28T17:20:28;3.65;;;2.20;;
66970;SDS011;53901;51.466;-2.588;2023-02-28T17:22:54;5.75;;;2.38;;
66970;SDS011;53901;51.466;-2.588;2023-02-28T17:25:20;5.35;;;2.50;;
66970;SDS011;53901;51.466;-2.588;2023-02-28T17:27:45;3.65;;;2.45;;
66970;SDS011;53901;51.466;-2.588;2023-02-28T17:30:18;4.72;;;2.60;;
66970;SDS011;53901;51.466;-2.588;2023-02-28T17:32:45;3.53;;;2.25;;
66970;SDS011;53901;51.466;-2.588;2023-02-28T17:35:11;5.25;;;2.80;;
66970;SDS011;53901;51.466;-2.588;2023-02-28T17:37:37;5.18;;;2.50;;
66970;SDS011;53901;51.466;-2.588;2023-02-28T17:40:03;4.95;;;2.90;;
66970;SDS011;53901;51.466;-2.588;2023-02-28T17:42:28;5.60;;;2.83;;
66970;SDS011;53901;51.466;-2.588;2023-02-28T17:44:54;4.85;;;2.90;;
66970;SDS011;53901;51.466;-2.588;2023-02-28T17:47:19;5.22;;;2.97;;
66970;SDS011;53901;51.466;-2.588;2023-02-28T17:49:44;4.78;;;3.00;;
66970;SDS011;53901;51.466;-2.588;2023-02-28T17:52:10;4.93;;;2.58;;
66970;SDS011;53901;51.466;-2.588;2023-02-28T17:54:36;8.40;;;3.55;;
66970;SDS011;53901;51.466;-2.588;2023-02-28T17:57:01;4.80;;;2.75;;
66970;SDS011;53901;51.466;-2.588;2023-02-28T17:59:27;6.15;;;3.20;;
66970;SDS011;53901;51.466;-2.588;2023-02-28T18:01:58;6.85;;;3.38;;
66970;SDS011;53901;51.466;-2.588;2023-02-28T18:04:28;5.20;;;3.55;;
66970;SDS011;53901;51.466;-2.588;2023-02-28T18:06:54;4.00;;;2.85;;
66970;SDS011;53901;51.466;-2.588;2023-02-28T18:09:21;4.95;;;2.90;;
66970;SDS011;53901;51.466;-2.588;2023-02-28T18:11:48;4.65;;;2.90;;
66970;SDS011;53901;51.466;-2.588;2023-02-28T18:14:18;11.20;;;3.10;;
66970;SDS011;53901;51.466;-2.588;2023-02-28T18:16:50;4.45;;;2.70;;
66970;SDS011;53901;51.466;-2.588;2023-02-28T18:19:16;5.13;;;2.63;;
66970;SDS011;53901;51.466;-2.588;2023-02-28T18:21:42;4.65;;;2.75;;
66970;SDS011;53901;51.466;-2.588;2023-02-28T18:24:09;5.38;;;2.63;;
66970;SDS011;53901;51.466;-2.588;2023-02-28T18:26:36;4.78;;;2.85;;
66970;SDS011;53901;51.466;-2.588;2023-02-28T18:29:02;9.63;;;3.17;;
66970;SDS011;53901;51.466;-2.588;2023-02-28T18:31:28;6.38;;;2.90;;
66970;SDS011;53901;51.466;-2.588;2023-02-28T18:33:56;4.70;;;2.90;;
66970;SDS011;53901;51.466;-2.588;2023-02-28T18:36:22;5.72;;;3.20;;
66970;SDS011;53901;51.466;-2.588;2023-02-28T18:38:48;4.63;;;2.70;;
66970;SDS011;53901;51.466;-2.588;2023-02-28T18:41:17;6.57;;;3.33;;
66970;SDS011;53901;51.466;-2.588;2023-02-28T18:43:45;5.30;;;3.40;;
66970;SDS011;53901;51.466;-2.588;2023-02-28T18:46:12;4.88;;;3.00;;
66970;SDS011;53901;51.466;-2.588;2023-02-28T18:48:39;4.97;;;2.97;;
66970;SDS011;53901;51.466;-2.588;2023-02-28T18:51:05;5.28;;;3.08;;
66970;SDS011;53901;51.466;-2.588;2023-02-28T18:53:35;5.82;;;3.65;;
66970;SDS011;53901;51.466;-2.588;2023-02-28T18:56:01;10.90;;;3.05;;
66970;SDS011;53901;51.466;-2.588;2023-02-28T18:58:27;4.57;;;3.20;;
66970;SDS011;53901;51.466;-2.588;2023-02-28T19:00:53;6.15;;;3.50;;
66970;SDS011;53901;51.466;-2.588;2023-02-28T19:03:18;7.30;;;3.92;;
66970;SDS011;53901;51.466;-2.588;2023-02-28T19:05:44;6.57;;;3.45;;
66970;SDS011;53901;51.466;-2.588;2023-02-28T19:08:11;5.13;;;3.50;;
66970;SDS011;53901;51.466;-2.588;2023-02-28T19:10:39;6.15;;;3.75;;
66970;SDS011;53901;51.466;-2.588;2023-02-28T19:13:05;7.10;;;4.43;;
66970;SDS011;53901;51.466;-2.588;2023-02-28T19:15:30;6.55;;;4.18;;
66970;SDS011;53901;51.466;-2.588;2023-02-28T19:17:56;7.38;;;4.75;;
66970;SDS011;53901;51.466;-2.588;2023-02-28T19:20:22;7.57;;;4.50;;
66970;SDS011;53901;51.466;-2.588;2023-02-28T19:22:48;6.00;;;4.15;;
66970;SDS011;53901;51.466;-2.588;2023-02-28T19:25:14;6.85;;;4.38;;
66970;SDS011;53901;51.466;-2.588;2023-02-28T19:27:39;8.98;;;4.70;;
66970;SDS011;53901;51.466;-2.588;2023-02-28T19:30:05;8.63;;;4.70;;
66970;SDS011;53901;51.466;-2.588;2023-02-28T19:32:31;7.38;;;5.18;;
66970;SDS011;53901;51.466;-2.588;2023-02-28T19:34:57;11.35;;;5.15;;
66970;SDS011;53901;51.466;-2.588;2023-02-28T19:37:22;10.70;;;5.55;;
66970;SDS011;53901;51.466;-2.588;2023-02-28T19:39:47;11.30;;;4.97;;
66970;SDS011;53901;51.466;-2.588;2023-02-28T19:42:14;8.57;;;5.25;;
66970;SDS011;53901;51.466;-2.588;2023-02-28T19:44:41;12.30;;;7.60;;
66970;SDS011;53901;51.466;-2.588;2023-02-28T19:47:07;9.23;;;6.05;;
66970;SDS011;53901;51.466;-2.588;2023-02-28T19:49:32;9.68;;;5.60;;
66970;SDS011;53901;51.466;-2.588;2023-02-28T19:51:58;9.52;;;6.47;;
66970;SDS011;53901;51.466;-2.588;2023-02-28T19:54:23;12.35;;;7.10;;
66970;SDS011;53901;51.466;-2.588;2023-02-28T19:56:50;10.60;;;7.03;;
66970;SDS011;53901;51.466;-2.588;2023-02-28T19:59:15;9.82;;;6.18;;
66970;SDS011;53901;51.466;-2.588;2023-02-28T20:01:41;10.80;;;6.30;;
66970;SDS011;53901;51.466;-2.588;2023-02-28T20:04:06;11.65;;;6.72;;
66970;SDS011;53901;51.466;-2.588;2023-02-28T20:06:32;10.75;;;6.43;;
66970;SDS011;53901;51.466;-2.588;2023-02-28T20:08:57;12.63;;;7.25;;
66970;SDS011;53901;51.466;-2.588;2023-02-28T20:11:23;10.68;;;7.20;;
66970;SDS011;53901;51.466;-2.588;2023-02-28T20:13:51;10.68;;;7.20;;
66970;SDS011;53901;51.466;-2.588;2023-02-28T20:16:17;10.35;;;7.22;;
66970;SDS011;53901;51.466;-2.588;2023-02-28T20:18:42;12.15;;;8.05;;
66970;SDS011;53901;51.466;-2.588;2023-02-28T20:21:09;10.63;;;7.20;;
66970;SDS011;53901;51.466;-2.588;2023-02-28T20:23:39;12.07;;;7.57;;
66970;SDS011;53901;51.466;-2.588;2023-02-28T20:26:05;12.38;;;7.38;;
66970;SDS011;53901;51.466;-2.588;2023-02-28T20:28:30;10.50;;;7.60;;
66970;SDS011;53901;51.466;-2.588;2023-02-28T20:30:56;12.40;;;7.57;;
66970;SDS011;53901;51.466;-2.588;2023-02-28T20:33:21;11.07;;;7.38;;
66970;SDS011;53901;51.466;-2.588;2023-02-28T20:35:47;11.60;;;7.45;;
66970;SDS011;53901;51.466;-2.588;2023-02-28T20:38:13;11.32;;;7.68;;
66970;SDS011;53901;51.466;-2.588;2023-02-28T20:40:39;11.98;;;8.20;;
66970;SDS011;53901;51.466;-2.588;2023-02-28T20:43:04;15.75;;;8.73;;
66970;SDS011;53901;51.466;-2.588;2023-02-28T20:45:30;14.18;;;9.45;;
66970;SDS011;53901;51.466;-2.588;2023-02-28T20:47:55;13.98;;;8.07;;
66970;SDS011;53901;51.466;-2.588;2023-02-28T20:50:21;12.55;;;8.38;;
66970;SDS011;53901;51.466;-2.588;2023-02-28T20:52:46;13.60;;;8.52;;
66970;SDS011;53901;51.466;-2.588;2023-02-28T20:55:12;13.93;;;9.23;;
66970;SDS011;53901;51.466;-2.588;2023-02-28T20:57:38;16.00;;;9.00;;
66970;SDS011;53901;51.466;-2.588;2023-02-28T21:00:04;14.35;;;9.05;;
66970;SDS011;53901;51.466;-2.588;2023-02-28T21:02:33;12.82;;;9.05;;
66970;SDS011;53901;51.466;-2.588;2023-02-28T21:04:59;14.18;;;8.38;;
66970;SDS011;53901;51.466;-2.588;2023-02-28T21:07:28;12.52;;;7.60;;
66970;SDS011;53901;51.466;-2.588;2023-02-28T21:09:54;13.07;;;7.90;;
66970;SDS011;53901;51.466;-2.588;2023-02-28T21:12:20;14.02;;;7.93;;
66970;SDS011;53901;51.466;-2.588;2023-02-28T21:14:46;13.43;;;8.23;;
66970;SDS011;53901;51.466;-2.588;2023-02-28T21:17:11;13.30;;;8.38;;
66970;SDS011;53901;51.466;-2.588;2023-02-28T21:19:37;12.75;;;7.70;;
66970;SDS011;53901;51.466;-2.588;2023-02-28T21:22:02;12.57;;;8.40;;
66970;SDS011;53901;51.466;-2.588;2023-02-28T21:24:28;12.10;;;7.35;;
66970;SDS011;53901;51.466;-2.588;2023-02-28T21:26:53;13.80;;;8.48;;
66970;SDS011;53901;51.466;-2.588;2023-02-28T21:29:20;9.25;;;6.32;;
66970;SDS011;53901;51.466;-2.588;2023-02-28T21:31:48;9.20;;;6.15;;
66970;SDS011;53901;51.466;-2.588;2023-02-28T21:34:15;11.07;;;6.80;;
66970;SDS011;53901;51.466;-2.588;2023-02-28T21:36:41;10.60;;;6.72;;
66970;SDS011;53901;51.466;-2.588;2023-02-28T21:39:14;10.90;;;7.18;;
66970;SDS011;53901;51.466;-2.588;2023-02-28T21:41:45;11.50;;;7.32;;
66970;SDS011;53901;51.466;-2.588;2023-02-28T21:44:11;13.95;;;7.00;;
66970;SDS011;53901;51.466;-2.588;2023-02-28T21:46:47;11.02;;;7.40;;
66970;SDS011;53901;51.466;-2.588;2023-02-28T21:49:14;12.00;;;6.90;;
66970;SDS011;53901;51.466;-2.588;2023-02-28T21:51:40;10.23;;;6.40;;
66970;SDS011;53901;51.466;-2.588;2023-02-28T21:54:09;10.38;;;7.22;;
66970;SDS011;53901;51.466;-2.588;2023-02-28T21:56:37;8.95;;;6.30;;
66970;SDS011;53901;51.466;-2.588;2023-02-28T21:59:03;9.00;;;6.50;;
66970;SDS011;53901;51.466;-2.588;2023-02-28T22:01:38;10.25;;;6.88;;
66970;SDS011;53901;51.466;-2.588;2023-02-28T22:04:08;9.18;;;6.28;;
66970;SDS011;53901;51.466;-2.588;2023-02-28T22:06:36;10.85;;;6.53;;
66970;SDS011;53901;51.466;-2.588;2023-02-28T22:09:04;10.35;;;6.38;;
66970;SDS011;53901;51.466;-2.588;2023-02-28T22:11:31;10.10;;;6.47;;
66970;SDS011;53901;51.466;-2.588;2023-02-28T22:14:00;9.32;;;6.03;;
66970;SDS011;53901;51.466;-2.588;2023-02-28T22:16:27;9.98;;;6.70;;
66970;SDS011;53901;51.466;-2.588;2023-02-28T22:18:55;9.05;;;6.20;;
66970;SDS011;53901;51.466;-2.588;2023-02-28T22:21:21;10.50;;;6.65;;
66970;SDS011;53901;51.466;-2.588;2023-02-28T22:23:50;10.32;;;5.80;;
66970;SDS011;53901;51.466;-2.588;2023-02-28T22:26:17;10.75;;;6.57;;
66970;SDS011;53901;51.466;-2.588;2023-02-28T22:28:44;11.13;;;6.93;;
66970;SDS011;53901;51.466;-2.588;2023-02-28T22:31:17;11.43;;;6.10;;
66970;SDS011;53901;51.466;-2.588;2023-02-28T22:33:45;9.80;;;6.35;;